createdAt,value
2022-11-29T00:01:02.375Z,99242.47
2022-11-29T00:03:30.066Z,99250.59
2022-11-29T00:05:57.709Z,99242.69
2022-11-29T00:08:24.693Z,99235.25
2022-11-29T00:10:52.037Z,99224.34
2022-11-29T00:13:19.026Z,99236.97
2022-11-29T00:15:46.042Z,99228.31
2022-11-29T00:18:13.546Z,99234.53
2022-11-29T00:20:40.575Z,99222.06
2022-11-29T00:23:07.638Z,99216.56
2022-11-29T00:25:34.980Z,99211.94
2022-11-29T00:28:01.963Z,99208.94
2022-11-29T00:30:29.026Z,99206.88
2022-11-29T00:32:56.379Z,99213.31
2022-11-29T00:35:23.386Z,99209.75
2022-11-29T00:37:50.395Z,99212.38
2022-11-29T00:40:17.750Z,99213.56
2022-11-29T00:42:44.723Z,99223.81
2022-11-29T00:45:12.204Z,99221.47
2022-11-29T00:47:39.496Z,99223.69
2022-11-29T00:50:07.113Z,99212.81
2022-11-29T00:52:34.119Z,99206.19
2022-11-29T00:55:01.505Z,99205.38
2022-11-29T00:57:28.538Z,99210.81
2022-11-29T00:59:55.523Z,99211.47
2022-11-29T01:02:22.868Z,99206.56
2022-11-29T01:04:49.902Z,99211.16
2022-11-29T01:07:17.016Z,99209.31
2022-11-29T01:09:44.360Z,99206.31
2022-11-29T01:12:11.369Z,99207.06
2022-11-29T01:14:38.428Z,99205.19
2022-11-29T01:17:05.721Z,99203.38
2022-11-29T01:19:32.746Z,99201.84
2022-11-29T01:21:59.753Z,99204.97
2022-11-29T01:24:27.116Z,99205.53
2022-11-29T01:26:54.105Z,99203.56
2022-11-29T01:29:21.084Z,99202.91
2022-11-29T01:31:48.419Z,99204.25
2022-11-29T01:34:15.404Z,99204.00
2022-11-29T01:36:42.400Z,99199.78
2022-11-29T01:39:10.565Z,99194.31
2022-11-29T01:41:37.897Z,99194.13
2022-11-29T01:44:14.075Z,99189.44
2022-11-29T01:46:43.379Z,99194.75
2022-11-29T01:49:12.532Z,99193.69
2022-11-29T01:51:42.748Z,99190.81
2022-11-29T01:54:11.064Z,99197.53
2022-11-29T01:56:38.818Z,99189.22
2022-11-29T01:59:09.030Z,99192.50
2022-11-29T02:01:37.079Z,99187.34
2022-11-29T02:04:04.953Z,99192.25
2022-11-29T02:06:33.271Z,99195.84
2022-11-29T02:09:00.431Z,99198.72
2022-11-29T02:11:47.523Z,99198.09
2022-11-29T02:14:29.110Z,99200.16
2022-11-29T02:17:10.292Z,99204.12
2022-11-29T02:19:59.640Z,99204.00
2022-11-29T02:22:38.384Z,99209.91
2022-11-29T02:25:35.859Z,99203.69
2022-11-29T02:28:27.796Z,99212.50
2022-11-29T02:31:17.410Z,99206.56
2022-11-29T02:34:04.236Z,99202.44
2022-11-29T02:36:46.020Z,99212.97
2022-11-29T02:39:21.648Z,99210.53
2022-11-29T02:42:04.421Z,99209.22
2022-11-29T02:44:58.733Z,99211.84
2022-11-29T02:48:03.404Z,99202.44
2022-11-29T02:50:50.286Z,99209.34
2022-11-29T02:53:23.784Z,99213.97
2022-11-29T02:55:57.264Z,99216.19
2022-11-29T02:59:01.750Z,99209.63
2022-11-29T03:02:12.659Z,99212.78
2022-11-29T03:04:55.236Z,99208.34
2022-11-29T03:07:43.834Z,99203.09
2022-11-29T03:10:22.814Z,99202.19
2022-11-29T03:12:51.508Z,99199.91
2022-11-29T03:15:30.691Z,99212.19
2022-11-29T03:18:02.302Z,99212.06
2022-11-29T03:20:29.472Z,99218.94
2022-11-29T03:22:59.283Z,99212.16
2022-11-29T03:25:39.319Z,99217.09
2022-11-29T03:28:21.200Z,99209.88
2022-11-29T03:31:04.324Z,99211.16
2022-11-29T03:33:49.811Z,99207.87
2022-11-29T03:36:36.995Z,99220.59
2022-11-29T03:39:08.144Z,99219.44
2022-11-29T03:41:44.208Z,99218.31
2022-11-29T03:44:19.071Z,99221.06
2022-11-29T03:47:04.450Z,99218.59
2022-11-29T03:49:38.496Z,99220.47
2022-11-29T03:52:19.229Z,99230.00
2022-11-29T03:55:05.072Z,99231.25
2022-11-29T03:57:55.729Z,99232.75
2022-11-29T04:00:23.280Z,99226.31
2022-11-29T04:03:31.119Z,99224.56
2022-11-29T04:06:19.156Z,99235.25
2022-11-29T04:08:49.918Z,99232.75
2022-11-29T04:11:54.705Z,99234.75
2022-11-29T04:14:30.715Z,99233.53
2022-11-29T04:17:13.067Z,99237.69
2022-11-29T04:20:20.835Z,99233.09
2022-11-29T04:23:07.262Z,99238.84
2022-11-29T04:26:08.517Z,99240.81
2022-11-29T04:29:01.312Z,99231.59
2022-11-29T04:31:55.218Z,99239.97
2022-11-29T04:34:55.989Z,99240.41
2022-11-29T04:37:37.699Z,99238.63
2022-11-29T04:40:18.975Z,99242.16
2022-11-29T04:43:14.511Z,99243.12
2022-11-29T04:46:00.546Z,99245.81
2022-11-29T04:48:27.783Z,99246.13
2022-11-29T04:51:15.725Z,99253.56
2022-11-29T04:54:27.295Z,99248.44
2022-11-29T04:57:01.042Z,99252.00
2022-11-29T04:59:28.282Z,99257.88
2022-11-29T05:02:16.026Z,99268.47
2022-11-29T05:04:47.898Z,99262.97
2022-11-29T05:07:41.862Z,99263.59
2022-11-29T05:10:42.627Z,99267.28
2022-11-29T05:13:29.142Z,99267.78
2022-11-29T05:16:33.143Z,99270.69
2022-11-29T05:19:12.163Z,99271.72
2022-11-29T05:22:04.171Z,99267.50
2022-11-29T05:24:55.576Z,99271.59
2022-11-29T05:27:22.799Z,99278.47
2022-11-29T05:29:54.680Z,99276.59
2022-11-29T05:32:21.569Z,99278.94
2022-11-29T05:35:08.764Z,99278.47
2022-11-29T05:37:49.906Z,99277.75
2022-11-29T05:40:36.183Z,99272.66
2022-11-29T05:43:31.651Z,99274.41
2022-11-29T05:46:12.844Z,99278.25
2022-11-29T05:48:51.899Z,99278.63
2022-11-29T05:51:31.206Z,99282.00
2022-11-29T05:54:17.174Z,99276.72
2022-11-29T05:57:01.702Z,99279.34
2022-11-29T05:59:29.838Z,99275.47
2022-11-29T06:02:21.700Z,99285.84
2022-11-29T06:05:00.955Z,99289.59
2022-11-29T06:07:34.316Z,99292.41
2022-11-29T06:10:17.682Z,99288.00
2022-11-29T06:13:10.979Z,99286.94
2022-11-29T06:15:56.790Z,99289.16
2022-11-29T06:18:44.665Z,99297.81
2022-11-29T06:21:17.703Z,99289.81
2022-11-29T06:24:34.451Z,99301.06
2022-11-29T06:27:10.867Z,99308.59
2022-11-29T06:30:09.857Z,99307.81
2022-11-29T06:32:57.880Z,99317.94
2022-11-29T06:35:36.102Z,99316.63
2022-11-29T06:38:10.122Z,99322.03
2022-11-29T06:40:37.527Z,99321.91
2022-11-29T06:43:05.125Z,99326.59
2022-11-29T06:45:32.575Z,99325.97
2022-11-29T06:48:04.756Z,99326.31
2022-11-29T06:50:38.061Z,99325.84
2022-11-29T06:53:31.084Z,99323.53
2022-11-29T06:56:34.933Z,99326.62
2022-11-29T06:59:24.849Z,99335.12
2022-11-29T07:01:55.233Z,99329.75
2022-11-29T07:04:45.760Z,99329.13
2022-11-29T07:07:21.164Z,99330.06
2022-11-29T07:09:50.115Z,99339.88
2022-11-29T07:12:18.101Z,99332.75
2022-11-29T07:14:45.965Z,99334.62
2022-11-29T07:17:39.815Z,99336.34
2022-11-29T07:20:09.797Z,99343.34
2022-11-29T07:23:04.722Z,99341.91
2022-11-29T07:25:50.818Z,99342.78
2022-11-29T07:28:20.471Z,99342.44
2022-11-29T07:30:57.371Z,99338.28
2022-11-29T07:34:08.985Z,99336.69
2022-11-29T07:37:15.770Z,99338.16
2022-11-29T07:39:54.292Z,99335.00
2022-11-29T07:42:49.761Z,99343.97
2022-11-29T07:45:37.653Z,99352.44
2022-11-29T07:48:05.333Z,99356.84
2022-11-29T07:50:32.889Z,99349.69
2022-11-29T07:53:00.117Z,99353.28
2022-11-29T07:55:29.643Z,99349.25
2022-11-29T07:57:56.665Z,99351.81
2022-11-29T08:00:23.851Z,99349.00
2022-11-29T08:02:51.378Z,99341.47
2022-11-29T08:05:20.868Z,99341.94
2022-11-29T08:07:47.954Z,99356.28
2022-11-29T08:10:16.559Z,99354.72
2022-11-29T08:12:45.637Z,99354.28
2022-11-29T08:15:12.971Z,99348.53
2022-11-29T08:17:40.716Z,99345.25
2022-11-29T08:20:09.831Z,99345.19
2022-11-29T08:22:37.014Z,99352.47
2022-11-29T08:25:05.342Z,99344.72
2022-11-29T08:27:32.352Z,99341.66
2022-11-29T08:29:59.453Z,99338.84
2022-11-29T08:32:27.268Z,99340.03
2022-11-29T08:34:54.536Z,99342.84
2022-11-29T08:37:21.543Z,99338.50
2022-11-29T08:39:48.984Z,99347.69
2022-11-29T08:42:16.041Z,99349.38
2022-11-29T08:44:43.311Z,99348.94
2022-11-29T08:47:29.739Z,99345.25
2022-11-29T08:50:02.457Z,99345.06
2022-11-29T08:52:53.989Z,99347.94
2022-11-29T08:55:22.821Z,99348.25
2022-11-29T08:57:51.465Z,99342.91
2022-11-29T09:00:21.260Z,99340.38
2022-11-29T09:02:48.609Z,99339.50
2022-11-29T09:05:15.936Z,99338.81
2022-11-29T09:07:43.333Z,99349.38
2022-11-29T09:10:11.357Z,99342.53
2022-11-29T09:12:39.830Z,99343.31
2022-11-29T09:15:09.010Z,99338.59
2022-11-29T09:17:36.224Z,99340.03
2022-11-29T09:20:04.725Z,99336.66
2022-11-29T09:22:31.773Z,99341.09
2022-11-29T09:24:58.777Z,99340.16
2022-11-29T09:27:26.099Z,99335.31
2022-11-29T09:29:53.100Z,99336.38
2022-11-29T09:32:20.111Z,99338.50
2022-11-29T09:34:47.711Z,99336.09
2022-11-29T09:37:14.958Z,99338.59
2022-11-29T09:39:42.023Z,99335.91
2022-11-29T09:42:19.665Z,99340.84
2022-11-29T09:44:59.395Z,99333.59
2022-11-29T09:47:58.047Z,99328.41
2022-11-29T09:50:31.269Z,99331.41
2022-11-29T09:53:38.729Z,99336.22
2022-11-29T09:56:28.700Z,99321.34
2022-11-29T09:59:01.462Z,99315.63
2022-11-29T10:01:31.980Z,99320.50
2022-11-29T10:04:05.211Z,99319.72
2022-11-29T10:06:45.921Z,99320.41
2022-11-29T10:09:33.685Z,99313.66
2022-11-29T10:12:12.969Z,99303.94
2022-11-29T10:14:52.694Z,99308.06
2022-11-29T10:17:39.456Z,99304.41
2022-11-29T10:20:13.627Z,99299.53
2022-11-29T10:22:45.409Z,99298.63
2022-11-29T10:25:21.828Z,99298.84
2022-11-29T10:27:48.900Z,99296.78
2022-11-29T10:30:17.179Z,99299.13
2022-11-29T10:32:46.000Z,99296.53
2022-11-29T10:35:16.051Z,99297.94
2022-11-29T10:37:52.231Z,99311.53
2022-11-29T10:40:34.158Z,99304.34
2022-11-29T10:43:01.669Z,99308.09
2022-11-29T10:45:34.345Z,99306.94
2022-11-29T10:48:19.040Z,99304.91
2022-11-29T10:50:49.106Z,99309.25
2022-11-29T10:53:20.016Z,99311.19
2022-11-29T10:55:53.264Z,99305.53
2022-11-29T10:58:28.233Z,99300.56
2022-11-29T11:01:06.906Z,99299.59
2022-11-29T11:03:41.205Z,99301.75
2022-11-29T11:06:17.681Z,99300.75
2022-11-29T11:08:52.208Z,99297.53
2022-11-29T11:11:25.378Z,99300.72
2022-11-29T11:14:08.140Z,99296.19
2022-11-29T11:16:37.557Z,99302.31
2022-11-29T11:19:29.912Z,99296.03
2022-11-29T11:21:58.646Z,99289.63
2022-11-29T11:24:46.361Z,99292.63
2022-11-29T11:27:13.649Z,99286.59
2022-11-29T11:29:42.645Z,99297.38
2022-11-29T11:32:18.885Z,99289.53
2022-11-29T11:35:00.834Z,99292.09
2022-11-29T11:37:31.451Z,99297.38
2022-11-29T11:40:20.618Z,99291.66
2022-11-29T11:42:47.692Z,99301.91
2022-11-29T11:45:15.087Z,99299.75
2022-11-29T11:47:53.192Z,99291.06
2022-11-29T11:50:34.115Z,99301.72
2022-11-29T11:53:29.934Z,99299.50
2022-11-29T11:56:04.454Z,99298.97
2022-11-29T11:58:32.093Z,99304.72
2022-11-29T12:01:08.403Z,99304.56
2022-11-29T12:03:45.779Z,99294.56
2022-11-29T12:06:24.838Z,99298.06
2022-11-29T12:09:01.992Z,99294.13
2022-11-29T12:11:34.005Z,99289.47
2022-11-29T12:14:02.291Z,99288.19
2022-11-29T12:16:35.542Z,99293.31
2022-11-29T12:19:20.789Z,99290.72
2022-11-29T12:21:52.563Z,99287.34
2022-11-29T12:24:26.555Z,99285.41
2022-11-29T12:26:57.359Z,99293.34
2022-11-29T12:29:31.900Z,99282.84
2022-11-29T12:32:07.757Z,99285.88
2022-11-29T12:35:08.961Z,99283.38
2022-11-29T12:37:43.837Z,99281.31
2022-11-29T12:40:45.304Z,99278.09
2022-11-29T12:43:24.841Z,99283.28
2022-11-29T12:46:02.213Z,99272.03
2022-11-29T12:48:42.593Z,99270.25
2022-11-29T12:51:24.615Z,99270.19
2022-11-29T12:54:30.188Z,99273.94
2022-11-29T12:57:04.784Z,99266.22
2022-11-29T12:59:50.157Z,99267.97
2022-11-29T13:02:44.965Z,99268.03
2022-11-29T13:05:37.513Z,99263.94
2022-11-29T13:08:25.988Z,99261.03
2022-11-29T13:11:37.424Z,99263.63
2022-11-29T13:14:42.010Z,99269.87
2022-11-29T13:17:26.275Z,99277.19
2022-11-29T13:20:00.320Z,99275.81
2022-11-29T13:22:44.297Z,99280.94
2022-11-29T13:25:19.081Z,99278.34
2022-11-29T13:28:01.857Z,99276.84
2022-11-29T13:30:29.158Z,99279.50
2022-11-29T13:33:03.900Z,99278.28
2022-11-29T13:36:01.692Z,99272.34
2022-11-29T13:38:41.937Z,99273.16
2022-11-29T13:41:23.225Z,99273.44
2022-11-29T13:44:04.306Z,99274.28
2022-11-29T13:47:02.968Z,99287.25
2022-11-29T13:49:50.139Z,99278.03
2022-11-29T13:52:39.497Z,99278.50
2022-11-29T13:55:12.520Z,99278.53
2022-11-29T14:00:44.664Z,99284.66
2022-11-29T14:03:24.107Z,99283.22
2022-11-29T14:06:30.733Z,99284.63
2022-11-29T14:09:20.353Z,99280.28
2022-11-29T14:12:01.661Z,99281.97
2022-11-29T14:14:52.210Z,99278.81
2022-11-29T14:18:16.752Z,99282.06
2022-11-29T14:20:53.377Z,99284.94
2022-11-29T14:23:41.756Z,99282.00
2022-11-29T14:26:08.964Z,99282.00
2022-11-29T14:28:40.934Z,99282.44
2022-11-29T14:31:09.607Z,99283.47
2022-11-29T14:33:54.980Z,99279.34
2022-11-29T14:36:49.640Z,99278.72
2022-11-29T14:39:42.978Z,99284.44
2022-11-29T14:42:21.589Z,99279.00
2022-11-29T14:44:51.659Z,99287.34
2022-11-29T14:47:21.705Z,99282.56
2022-11-29T14:49:48.856Z,99284.66
2022-11-29T14:52:15.822Z,99283.81
2022-11-29T14:54:59.789Z,99281.59
2022-11-29T14:57:54.973Z,99281.25
2022-11-29T15:00:28.023Z,99274.94
2022-11-29T15:03:09.603Z,99274.88
2022-11-29T15:05:57.686Z,99278.72
2022-11-29T15:08:57.920Z,99271.25
2022-11-29T15:11:45.038Z,99278.06
2022-11-29T15:14:37.621Z,99270.13
2022-11-29T15:17:21.692Z,99277.47
2022-11-29T15:19:59.097Z,99277.47
2022-11-29T15:22:45.137Z,99265.28
2022-11-29T15:25:19.837Z,99264.56
2022-11-29T15:27:57.726Z,99265.62
2022-11-29T15:30:38.899Z,99259.59
2022-11-29T15:33:08.161Z,99274.81
2022-11-29T15:35:36.038Z,99267.34
2022-11-29T15:38:03.225Z,99258.78
2022-11-29T15:40:36.315Z,99262.53
2022-11-29T15:43:23.474Z,99260.22
2022-11-29T15:45:55.605Z,99262.53
2022-11-29T15:48:32.785Z,99272.59
2022-11-29T15:51:24.260Z,99284.72
2022-11-29T15:54:12.744Z,99275.94
2022-11-29T15:56:48.836Z,99286.91
2022-11-29T15:59:30.751Z,99287.19
2022-11-29T16:02:01.645Z,99281.75
2022-11-29T16:04:29.556Z,99283.16
2022-11-29T16:06:56.993Z,99286.09
2022-11-29T16:09:55.135Z,99287.50
2022-11-29T16:12:22.531Z,99286.84
2022-11-29T16:14:53.036Z,99290.09
2022-11-29T16:17:20.922Z,99283.53
2022-11-29T16:19:48.700Z,99288.47
2022-11-29T16:22:22.579Z,99285.97
2022-11-29T16:25:01.035Z,99291.47
2022-11-29T16:27:31.403Z,99290.31
2022-11-29T16:29:58.837Z,99288.94
2022-11-29T16:32:35.773Z,99293.09
2022-11-29T16:35:24.524Z,99288.00
2022-11-29T16:37:51.578Z,99295.00
2022-11-29T16:40:30.141Z,99301.88
2022-11-29T16:43:23.997Z,99304.03
2022-11-29T16:46:20.535Z,99312.12
2022-11-29T16:48:50.987Z,99316.94
2022-11-29T16:51:27.325Z,99303.88
2022-11-29T16:53:54.473Z,99308.97
2022-11-29T16:56:24.427Z,99315.25
2022-11-29T16:59:24.985Z,99316.84
2022-11-29T17:01:43.179Z,99317.13
2022-11-29T17:04:10.287Z,99312.84
2022-11-29T17:06:37.853Z,99323.94
2022-11-29T17:09:05.746Z,99323.53
2022-11-29T17:11:32.923Z,99325.63
2022-11-29T17:13:59.943Z,99319.94
2022-11-29T17:16:27.323Z,99323.28
2022-11-29T17:18:54.464Z,99325.09
2022-11-29T17:21:26.129Z,99335.63
2022-11-29T17:23:53.931Z,99330.47
2022-11-29T17:26:21.799Z,99328.06
2022-11-29T17:28:50.328Z,99331.69
2022-11-29T17:31:20.427Z,99328.59
2022-11-29T17:33:47.932Z,99333.09
2022-11-29T17:36:17.791Z,99335.63
2022-11-29T17:38:45.828Z,99337.37
2022-11-29T17:41:18.105Z,99331.31
2022-11-29T17:43:45.377Z,99340.66
2022-11-29T17:46:27.771Z,99344.34
2022-11-29T17:48:55.392Z,99338.00
2022-11-29T17:54:11.524Z,99335.81
2022-11-29T17:56:38.662Z,99324.53
2022-11-29T17:59:06.011Z,99325.63
2022-11-29T18:01:34.809Z,99326.91
2022-11-29T18:04:04.127Z,99332.41
2022-11-29T18:06:39.377Z,99334.00
2022-11-29T18:09:09.123Z,99326.91
2022-11-29T18:11:46.384Z,99323.47
2022-11-29T18:14:16.224Z,99332.50
2022-11-29T18:16:45.213Z,99334.47
2022-11-29T18:19:14.987Z,99329.59
2022-11-29T18:21:42.800Z,99332.22
2022-11-29T18:24:10.162Z,99329.63
2022-11-29T18:26:37.824Z,99335.63
2022-11-29T18:29:13.287Z,99336.00
2022-11-29T18:31:42.315Z,99338.47
2022-11-29T18:34:10.897Z,99347.69
2022-11-29T18:36:43.593Z,99352.87
2022-11-29T18:39:15.754Z,99346.25
2022-11-29T18:41:44.431Z,99354.53
2022-11-29T18:44:13.795Z,99350.12
2022-11-29T18:46:43.140Z,99346.16
2022-11-29T18:49:13.003Z,99349.22
2022-11-29T18:51:42.829Z,99342.28
2022-11-29T18:54:10.255Z,99344.19
2022-11-29T18:56:37.913Z,99349.88
2022-11-29T18:59:14.625Z,99346.91
2022-11-29T19:01:42.698Z,99347.19
2022-11-29T19:04:13.999Z,99338.84
2022-11-29T19:06:41.969Z,99340.31
2022-11-29T19:09:13.709Z,99329.44
2022-11-29T19:11:40.962Z,99341.75
2022-11-29T19:14:11.704Z,99340.72
2022-11-29T19:16:44.363Z,99338.75
2022-11-29T19:19:12.074Z,99346.50
2022-11-29T19:21:40.102Z,99349.78
2022-11-29T19:24:13.778Z,99341.00
2022-11-29T19:26:44.496Z,99344.41
2022-11-29T19:29:12.904Z,99349.56
2022-11-29T19:31:40.077Z,99342.69
2022-11-29T19:34:07.530Z,99352.81
2022-11-29T19:36:34.546Z,99354.59
2022-11-29T19:39:02.157Z,99356.28
2022-11-29T19:41:34.174Z,99350.25
2022-11-29T19:44:03.584Z,99353.03
2022-11-29T19:46:33.186Z,99352.38
2022-11-29T19:49:01.341Z,99353.75
2022-11-29T19:51:29.810Z,99353.50
2022-11-29T19:54:05.223Z,99345.63
2022-11-29T19:56:32.715Z,99352.50
2022-11-29T19:59:00.014Z,99361.09
2022-11-29T20:01:37.908Z,99347.06
2022-11-29T20:04:07.788Z,99353.50
2022-11-29T20:06:35.211Z,99352.22
2022-11-29T20:09:02.488Z,99349.72
2022-11-29T20:11:30.439Z,99341.28
2022-11-29T20:13:59.531Z,99343.84
2022-11-29T20:16:27.657Z,99338.81
2022-11-29T20:18:55.108Z,99346.78
2022-11-29T20:21:27.413Z,99337.72
2022-11-29T20:23:56.877Z,99333.66
2022-11-29T20:26:24.616Z,99335.56
2022-11-29T20:28:52.003Z,99340.00
2022-11-29T20:31:22.641Z,99347.66
2022-11-29T20:33:52.078Z,99345.09
2022-11-29T20:36:37.840Z,99347.66
2022-11-29T20:39:35.396Z,99344.31
2022-11-29T20:42:36.656Z,99342.38
2022-11-29T20:45:09.004Z,99337.72
2022-11-29T20:47:47.897Z,99339.53
2022-11-29T20:50:26.846Z,99338.41
2022-11-29T20:53:18.187Z,99337.66
2022-11-29T20:55:48.279Z,99334.00
2022-11-29T20:58:16.899Z,99327.12
2022-11-29T21:00:44.191Z,99334.16
2022-11-29T21:03:15.735Z,99335.63
2022-11-29T21:05:43.552Z,99336.41
2022-11-29T21:08:10.674Z,99345.06
2022-11-29T21:10:37.658Z,99345.00
2022-11-29T21:13:05.187Z,99339.50
2022-11-29T21:15:32.672Z,99342.06
2022-11-29T21:18:00.231Z,99336.50
2022-11-29T21:20:27.792Z,99340.69
2022-11-29T21:23:10.838Z,99337.47
2022-11-29T21:25:50.181Z,99337.47
2022-11-29T21:28:17.495Z,99343.41
2022-11-29T21:30:45.131Z,99335.72
2022-11-29T21:33:12.380Z,99337.37
2022-11-29T21:35:39.908Z,99343.22
2022-11-29T21:38:13.105Z,99341.50
2022-11-29T21:40:40.178Z,99346.53
2022-11-29T21:43:07.465Z,99344.47
2022-11-29T21:45:34.449Z,99348.91
2022-11-29T21:48:01.579Z,99346.41
2022-11-29T21:50:28.963Z,99339.44
2022-11-29T21:52:56.330Z,99345.44
2022-11-29T21:55:30.031Z,99339.16
2022-11-29T21:57:59.227Z,99345.44
2022-11-29T22:00:26.216Z,99345.16
2022-11-29T22:02:53.580Z,99343.19
2022-11-29T22:05:20.732Z,99345.63
2022-11-29T22:07:47.802Z,99336.38
2022-11-29T22:10:15.143Z,99340.53
2022-11-29T22:12:51.296Z,99334.47
2022-11-29T22:15:24.462Z,99333.56
2022-11-29T22:17:53.330Z,99336.75
2022-11-29T22:20:20.677Z,99335.22
2022-11-29T22:22:48.646Z,99330.03
2022-11-29T22:25:15.869Z,99331.88
2022-11-29T22:27:43.158Z,99331.81
2022-11-29T22:30:10.591Z,99339.50
2022-11-29T22:32:37.582Z,99333.50
2022-11-29T22:35:05.177Z,99331.66
2022-11-29T22:37:32.161Z,99331.72
2022-11-29T22:39:59.159Z,99336.00
2022-11-29T22:42:26.426Z,99335.06
2022-11-29T22:44:53.403Z,99328.09
2022-11-29T22:47:20.517Z,99329.66
2022-11-29T22:49:49.388Z,99327.12
2022-11-29T22:52:16.387Z,99324.47
2022-11-29T22:54:45.250Z,99318.53
2022-11-29T22:57:12.801Z,99319.44
2022-11-29T22:59:39.784Z,99320.63
2022-11-29T23:02:06.801Z,99314.81
2022-11-29T23:04:34.107Z,99313.44
2022-11-29T23:07:01.106Z,99309.78
2022-11-29T23:09:28.112Z,99311.41
2022-11-29T23:11:56.340Z,99316.59
2022-11-29T23:14:23.857Z,99312.94
2022-11-29T23:16:51.347Z,99313.72
2022-11-29T23:19:19.259Z,99312.88
2022-11-29T23:21:46.550Z,99310.16
2022-11-29T23:24:14.726Z,99305.72
2022-11-29T23:26:44.977Z,99308.97
2022-11-29T23:29:15.064Z,99315.78
2022-11-29T23:31:42.867Z,99303.00
2022-11-29T23:34:09.960Z,99301.97
2022-11-29T23:36:37.010Z,99300.06
2022-11-29T23:39:05.696Z,99297.53
2022-11-29T23:41:33.608Z,99299.00
2022-11-29T23:44:03.589Z,99304.03
2022-11-29T23:46:30.843Z,99299.75
2022-11-29T23:48:57.844Z,99305.56
2022-11-29T23:51:24.827Z,99304.44
2022-11-29T23:53:53.032Z,99303.50
2022-11-29T23:56:20.734Z,99305.34
2022-11-29T23:58:48.277Z,99304.56
